sensor_id;sensor_type;location;lat;lon;timestamp;temperature;humidity
60039;DHT22;45916;52.734;6.544;2023-06-14T00:02:03;14.70;84.40
60039;DHT22;45916;52.734;6.544;2023-06-14T00:04:30;14.70;84.80
60039;DHT22;45916;52.734;6.544;2023-06-14T00:06:56;14.60;85.10
60039;DHT22;45916;52.734;6.544;2023-06-14T00:09:22;14.60;85.40
60039;DHT22;45916;52.734;6.544;2023-06-14T00:11:48;14.60;85.50
60039;DHT22;45916;52.734;6.544;2023-06-14T00:14:14;14.50;86.10
60039;DHT22;45916;52.734;6.544;2023-06-14T00:16:40;14.50;86.40
60039;DHT22;45916;52.734;6.544;2023-06-14T00:19:08;14.40;86.80
60039;DHT22;45916;52.734;6.544;2023-06-14T00:21:36;14.40;87.40
60039;DHT22;45916;52.734;6.544;2023-06-14T00:24:02;14.40;87.70
60039;DHT22;45916;52.734;6.544;2023-06-14T00:26:27;14.40;87.90
60039;DHT22;45916;52.734;6.544;2023-06-14T00:28:54;14.30;88.20
60039;DHT22;45916;52.734;6.544;2023-06-14T00:31:20;14.30;88.30
60039;DHT22;45916;52.734;6.544;2023-06-14T00:33:46;14.30;88.90
60039;DHT22;45916;52.734;6.544;2023-06-14T00:36:12;14.30;89.00
60039;DHT22;45916;52.734;6.544;2023-06-14T00:38:37;14.20;89.50
60039;DHT22;45916;52.734;6.544;2023-06-14T00:41:03;14.20;90.40
60039;DHT22;45916;52.734;6.544;2023-06-14T00:43:29;14.10;90.20
60039;DHT22;45916;52.734;6.544;2023-06-14T00:45:55;14.10;90.70
60039;DHT22;45916;52.734;6.544;2023-06-14T00:48:21;14.10;90.40
60039;DHT22;45916;52.734;6.544;2023-06-14T00:50:48;14.10;90.70
60039;DHT22;45916;52.734;6.544;2023-06-14T00:53:17;14.10;90.90
60039;DHT22;45916;52.734;6.544;2023-06-14T00:55:44;14.00;91.00
60039;DHT22;45916;52.734;6.544;2023-06-14T00:58:10;14.00;91.20
60039;DHT22;45916;52.734;6.544;2023-06-14T01:00:37;14.00;91.40
60039;DHT22;45916;52.734;6.544;2023-06-14T01:03:02;13.90;91.50
60039;DHT22;45916;52.734;6.544;2023-06-14T01:05:29;13.90;91.70
60039;DHT22;45916;52.734;6.544;2023-06-14T01:13:27;13.80;93.20
60039;DHT22;45916;52.734;6.544;2023-06-14T01:15:55;13.80;92.70
60039;DHT22;45916;52.734;6.544;2023-06-14T01:18:21;13.70;92.70
60039;DHT22;45916;52.734;6.544;2023-06-14T01:20:50;13.70;93.10
60039;DHT22;45916;52.734;6.544;2023-06-14T01:23:19;13.70;93.60
60039;DHT22;45916;52.734;6.544;2023-06-14T01:25:46;13.70;93.60
60039;DHT22;45916;52.734;6.544;2023-06-14T01:28:13;13.60;93.50
60039;DHT22;45916;52.734;6.544;2023-06-14T01:30:45;13.60;93.80
60039;DHT22;45916;52.734;6.544;2023-06-14T01:33:19;13.50;94.10
60039;DHT22;45916;52.734;6.544;2023-06-14T01:35:47;13.50;94.40
60039;DHT22;45916;52.734;6.544;2023-06-14T01:38:13;13.50;94.50
60039;DHT22;45916;52.734;6.544;2023-06-14T01:40:41;13.50;94.80
60039;DHT22;45916;52.734;6.544;2023-06-14T01:43:09;13.50;95.20
60039;DHT22;45916;52.734;6.544;2023-06-14T01:45:36;13.50;95.40
60039;DHT22;45916;52.734;6.544;2023-06-14T01:48:02;13.40;95.80
60039;DHT22;45916;52.734;6.544;2023-06-14T01:50:30;13.40;95.90
60039;DHT22;45916;52.734;6.544;2023-06-14T01:52:56;13.30;95.90
60039;DHT22;45916;52.734;6.544;2023-06-14T01:55:22;13.30;96.20
60039;DHT22;45916;52.734;6.544;2023-06-14T01:57:50;13.20;96.60
60039;DHT22;45916;52.734;6.544;2023-06-14T02:00:16;13.20;96.70
60039;DHT22;45916;52.734;6.544;2023-06-14T02:02:44;13.20;97.30
60039;DHT22;45916;52.734;6.544;2023-06-14T02:05:10;13.20;97.50
60039;DHT22;45916;52.734;6.544;2023-06-14T02:07:36;13.10;97.80
60039;DHT22;45916;52.734;6.544;2023-06-14T02:10:03;13.10;97.90
60039;DHT22;45916;52.734;6.544;2023-06-14T02:12:28;13.10;98.50
60039;DHT22;45916;52.734;6.544;2023-06-14T02:14:54;13.00;98.60
60039;DHT22;45916;52.734;6.544;2023-06-14T02:17:22;13.00;98.80
60039;DHT22;45916;52.734;6.544;2023-06-14T02:19:47;13.00;99.10
60039;DHT22;45916;52.734;6.544;2023-06-14T02:22:14;13.00;99.90
60039;DHT22;45916;52.734;6.544;2023-06-14T02:24:41;12.90;99.70
60039;DHT22;45916;52.734;6.544;2023-06-14T02:27:07;12.90;99.90
60039;DHT22;45916;52.734;6.544;2023-06-14T02:29:35;12.80;99.90
60039;DHT22;45916;52.734;6.544;2023-06-14T02:32:01;12.80;99.90
60039;DHT22;45916;52.734;6.544;2023-06-14T02:34:27;12.80;99.90
60039;DHT22;45916;52.734;6.544;2023-06-14T02:36:52;12.70;99.90
60039;DHT22;45916;52.734;6.544;2023-06-14T02:39:18;12.70;99.90
60039;DHT22;45916;52.734;6.544;2023-06-14T02:41:46;12.70;99.90
60039;DHT22;45916;52.734;6.544;2023-06-14T02:44:13;12.60;99.90
60039;DHT22;45916;52.734;6.544;2023-06-14T02:46:39;12.60;99.90
60039;DHT22;45916;52.734;6.544;2023-06-14T02:49:05;12.60;99.90
60039;DHT22;45916;52.734;6.544;2023-06-14T02:51:31;12.60;99.90
60039;DHT22;45916;52.734;6.544;2023-06-14T02:53:56;12.60;99.90
60039;DHT22;45916;52.734;6.544;2023-06-14T02:56:22;12.50;99.90
60039;DHT22;45916;52.734;6.544;2023-06-14T02:58:48;12.50;99.90
60039;DHT22;45916;52.734;6.544;2023-06-14T03:01:14;12.50;99.90
60039;DHT22;45916;52.734;6.544;2023-06-14T03:03:40;12.50;99.90
60039;DHT22;45916;52.734;6.544;2023-06-14T03:06:05;12.40;99.90
60039;DHT22;45916;52.734;6.544;2023-06-14T03:08:33;12.40;99.90
60039;DHT22;45916;52.734;6.544;2023-06-14T03:11:04;12.40;99.90
60039;DHT22;45916;52.734;6.544;2023-06-14T03:13:35;12.50;99.90
60039;DHT22;45916;52.734;6.544;2023-06-14T03:16:01;12.40;99.90
60039;DHT22;45916;52.734;6.544;2023-06-14T03:18:29;12.50;99.90
60039;DHT22;45916;52.734;6.544;2023-06-14T03:20:56;12.40;99.90
60039;DHT22;45916;52.734;6.544;2023-06-14T03:23:26;12.40;99.90
60039;DHT22;45916;52.734;6.544;2023-06-14T03:25:52;12.40;99.90
60039;DHT22;45916;52.734;6.544;2023-06-14T03:28:18;12.40;99.90
60039;DHT22;45916;52.734;6.544;2023-06-14T03:30:43;12.40;99.90
60039;DHT22;45916;52.734;6.544;2023-06-14T03:33:09;12.40;99.90
60039;DHT22;45916;52.734;6.544;2023-06-14T03:35:36;12.40;99.90
60039;DHT22;45916;52.734;6.544;2023-06-14T03:38:01;12.50;99.90
60039;DHT22;45916;52.734;6.544;2023-06-14T03:40:29;12.50;99.90
60039;DHT22;45916;52.734;6.544;2023-06-14T03:42:54;12.60;99.90
60039;DHT22;45916;52.734;6.544;2023-06-14T03:45:21;12.60;99.90
60039;DHT22;45916;52.734;6.544;2023-06-14T03:47:46;12.70;99.90
60039;DHT22;45916;52.734;6.544;2023-06-14T03:50:12;12.70;99.90
60039;DHT22;45916;52.734;6.544;2023-06-14T03:52:38;12.70;99.90
60039;DHT22;45916;52.734;6.544;2023-06-14T03:55:04;12.70;99.90
60039;DHT22;45916;52.734;6.544;2023-06-14T03:57:30;12.80;99.90
60039;DHT22;45916;52.734;6.544;2023-06-14T03:59:56;12.90;99.90
60039;DHT22;45916;52.734;6.544;2023-06-14T04:02:22;13.00;99.90
60039;DHT22;45916;52.734;6.544;2023-06-14T04:04:48;13.20;99.90
60039;DHT22;45916;52.734;6.544;2023-06-14T04:07:15;13.40;99.90
60039;DHT22;45916;52.734;6.544;2023-06-14T04:09:45;13.40;99.90
60039;DHT22;45916;52.734;6.544;2023-06-14T04:12:11;13.50;99.90
60039;DHT22;45916;52.734;6.544;2023-06-14T04:14:37;13.60;99.90
60039;DHT22;45916;52.734;6.544;2023-06-14T04:17:03;13.70;99.90
60039;DHT22;45916;52.734;6.544;2023-06-14T04:19:29;13.70;99.90
60039;DHT22;45916;52.734;6.544;2023-06-14T04:21:55;13.90;99.90
60039;DHT22;45916;52.734;6.544;2023-06-14T04:24:21;14.00;99.90
60039;DHT22;45916;52.734;6.544;2023-06-14T04:26:46;14.00;99.90
60039;DHT22;45916;52.734;6.544;2023-06-14T04:29:16;14.00;99.90
60039;DHT22;45916;52.734;6.544;2023-06-14T04:31:45;14.10;99.90
60039;DHT22;45916;52.734;6.544;2023-06-14T04:34:11;14.10;99.90
60039;DHT22;45916;52.734;6.544;2023-06-14T04:36:42;14.20;99.90
60039;DHT22;45916;52.734;6.544;2023-06-14T04:39:18;14.20;99.90
60039;DHT22;45916;52.734;6.544;2023-06-14T04:41:44;14.30;99.90
60039;DHT22;45916;52.734;6.544;2023-06-14T04:44:10;14.50;99.90
60039;DHT22;45916;52.734;6.544;2023-06-14T04:46:36;14.60;99.90
60039;DHT22;45916;52.734;6.544;2023-06-14T04:49:15;14.70;99.90
60039;DHT22;45916;52.734;6.544;2023-06-14T04:51:45;15.10;99.90
60039;DHT22;45916;52.734;6.544;2023-06-14T04:54:12;16.00;99.90
60039;DHT22;45916;52.734;6.544;2023-06-14T04:56:43;17.00;99.90
60039;DHT22;45916;52.734;6.544;2023-06-14T04:59:10;18.20;99.90
60039;DHT22;45916;52.734;6.544;2023-06-14T05:01:40;19.10;96.60
60039;DHT22;45916;52.734;6.544;2023-06-14T05:04:06;20.10;94.40
60039;DHT22;45916;52.734;6.544;2023-06-14T05:06:32;20.70;89.80
60039;DHT22;45916;52.734;6.544;2023-06-14T05:08:58;21.50;89.10
60039;DHT22;45916;52.734;6.544;2023-06-14T05:11:24;21.70;80.40
60039;DHT22;45916;52.734;6.544;2023-06-14T05:13:50;22.20;78.10
60039;DHT22;45916;52.734;6.544;2023-06-14T05:16:17;22.60;76.50
60039;DHT22;45916;52.734;6.544;2023-06-14T05:18:45;22.90;74.00
60039;DHT22;45916;52.734;6.544;2023-06-14T05:21:12;23.20;73.80
60039;DHT22;45916;52.734;6.544;2023-06-14T05:23:38;23.90;69.00
60039;DHT22;45916;52.734;6.544;2023-06-14T05:26:04;24.20;65.10
60039;DHT22;45916;52.734;6.544;2023-06-14T05:28:30;24.40;65.40
60039;DHT22;45916;52.734;6.544;2023-06-14T05:30:56;24.30;64.60
60039;DHT22;45916;52.734;6.544;2023-06-14T05:33:23;24.90;63.30
60039;DHT22;45916;52.734;6.544;2023-06-14T05:35:49;25.20;63.10
60039;DHT22;45916;52.734;6.544;2023-06-14T05:38:15;25.90;61.60
60039;DHT22;45916;52.734;6.544;2023-06-14T05:40:41;25.90;58.80
60039;DHT22;45916;52.734;6.544;2023-06-14T05:43:06;25.70;57.70
60039;DHT22;45916;52.734;6.544;2023-06-14T05:45:32;25.60;57.40
60039;DHT22;45916;52.734;6.544;2023-06-14T05:47:58;25.50;57.60
60039;DHT22;45916;52.734;6.544;2023-06-14T05:50:23;25.60;57.40
60039;DHT22;45916;52.734;6.544;2023-06-14T05:52:49;25.70;57.00
60039;DHT22;45916;52.734;6.544;2023-06-14T05:55:16;25.40;56.30
60039;DHT22;45916;52.734;6.544;2023-06-14T05:57:42;26.00;55.70
60039;DHT22;45916;52.734;6.544;2023-06-14T06:00:08;26.10;55.60
60039;DHT22;45916;52.734;6.544;2023-06-14T06:02:41;26.30;55.00
60039;DHT22;45916;52.734;6.544;2023-06-14T06:05:09;26.40;53.90
60039;DHT22;45916;52.734;6.544;2023-06-14T06:07:36;26.70;54.20
60039;DHT22;45916;52.734;6.544;2023-06-14T06:10:02;27.30;53.70
60039;DHT22;45916;52.734;6.544;2023-06-14T06:12:27;28.00;51.80
60039;DHT22;45916;52.734;6.544;2023-06-14T06:14:53;28.10;51.10
60039;DHT22;45916;52.734;6.544;2023-06-14T06:17:19;28.50;51.60
60039;DHT22;45916;52.734;6.544;2023-06-14T06:19:44;28.80;50.20
60039;DHT22;45916;52.734;6.544;2023-06-14T06:22:11;29.20;49.50
60039;DHT22;45916;52.734;6.544;2023-06-14T06:24:37;30.10;48.10
60039;DHT22;45916;52.734;6.544;2023-06-14T06:27:03;30.40;46.40
60039;DHT22;45916;52.734;6.544;2023-06-14T06:29:28;30.10;46.20
60039;DHT22;45916;52.734;6.544;2023-06-14T06:31:54;29.90;46.80
60039;DHT22;45916;52.734;6.544;2023-06-14T06:34:21;30.20;46.70
60039;DHT22;45916;52.734;6.544;2023-06-14T06:36:47;30.70;46.70
60039;DHT22;45916;52.734;6.544;2023-06-14T06:39:13;31.30;45.70
60039;DHT22;45916;52.734;6.544;2023-06-14T06:41:40;30.80;44.20
60039;DHT22;45916;52.734;6.544;2023-06-14T06:44:07;30.80;44.20
60039;DHT22;45916;52.734;6.544;2023-06-14T06:46:33;29.60;45.60
60039;DHT22;45916;52.734;6.544;2023-06-14T06:49:00;29.70;46.10
60039;DHT22;45916;52.734;6.544;2023-06-14T06:51:26;29.80;45.10
60039;DHT22;45916;52.734;6.544;2023-06-14T06:53:53;29.50;45.10
60039;DHT22;45916;52.734;6.544;2023-06-14T06:56:22;29.10;45.10
60039;DHT22;45916;52.734;6.544;2023-06-14T06:58:52;28.60;46.50
60039;DHT22;45916;52.734;6.544;2023-06-14T07:01:18;28.10;47.10
60039;DHT22;45916;52.734;6.544;2023-06-14T07:03:45;28.60;47.00
60039;DHT22;45916;52.734;6.544;2023-06-14T07:06:11;29.00;46.40
60039;DHT22;45916;52.734;6.544;2023-06-14T07:08:37;29.60;45.00
60039;DHT22;45916;52.734;6.544;2023-06-14T07:11:04;29.60;44.70
60039;DHT22;45916;52.734;6.544;2023-06-14T07:13:31;29.70;44.80
60039;DHT22;45916;52.734;6.544;2023-06-14T07:16:00;29.70;44.80
60039;DHT22;45916;52.734;6.544;2023-06-14T07:18:26;29.60;44.50
60039;DHT22;45916;52.734;6.544;2023-06-14T07:20:55;29.70;44.50
60039;DHT22;45916;52.734;6.544;2023-06-14T07:23:21;29.50;43.90
60039;DHT22;45916;52.734;6.544;2023-06-14T07:25:47;29.00;44.90
60039;DHT22;45916;52.734;6.544;2023-06-14T07:28:12;29.30;44.60
60039;DHT22;45916;52.734;6.544;2023-06-14T07:30:38;28.40;46.30
60039;DHT22;45916;52.734;6.544;2023-06-14T07:33:04;28.90;46.20
60039;DHT22;45916;52.734;6.544;2023-06-14T07:35:29;29.20;45.20
60039;DHT22;45916;52.734;6.544;2023-06-14T07:37:55;29.40;45.00
60039;DHT22;45916;52.734;6.544;2023-06-14T07:40:21;29.80;43.90
60039;DHT22;45916;52.734;6.544;2023-06-14T07:42:47;29.80;43.70
60039;DHT22;45916;52.734;6.544;2023-06-14T07:45:16;29.90;43.20
60039;DHT22;45916;52.734;6.544;2023-06-14T07:47:42;30.00;43.30
60039;DHT22;45916;52.734;6.544;2023-06-14T07:50:08;29.40;44.00
60039;DHT22;45916;52.734;6.544;2023-06-14T07:52:34;29.30;45.00
60039;DHT22;45916;52.734;6.544;2023-06-14T07:55:00;29.40;44.60
60039;DHT22;45916;52.734;6.544;2023-06-14T07:57:25;29.10;44.60
60039;DHT22;45916;52.734;6.544;2023-06-14T07:59:51;29.20;44.90
60039;DHT22;45916;52.734;6.544;2023-06-14T08:02:18;29.70;43.60
60039;DHT22;45916;52.734;6.544;2023-06-14T08:04:44;29.60;43.30
60039;DHT22;45916;52.734;6.544;2023-06-14T08:07:09;30.10;42.80
60039;DHT22;45916;52.734;6.544;2023-06-14T08:09:36;30.00;43.60
60039;DHT22;45916;52.734;6.544;2023-06-14T08:12:06;30.70;42.70
60039;DHT22;45916;52.734;6.544;2023-06-14T08:14:39;31.70;41.50
60039;DHT22;45916;52.734;6.544;2023-06-14T08:17:05;31.80;41.10
60039;DHT22;45916;52.734;6.544;2023-06-14T08:19:30;31.40;41.20
60039;DHT22;45916;52.734;6.544;2023-06-14T08:21:56;31.90;39.80
60039;DHT22;45916;52.734;6.544;2023-06-14T08:24:22;30.90;40.30
60039;DHT22;45916;52.734;6.544;2023-06-14T08:26:55;31.20;40.70
60039;DHT22;45916;52.734;6.544;2023-06-14T08:29:22;32.10;40.50
60039;DHT22;45916;52.734;6.544;2023-06-14T08:31:48;32.40;39.20
60039;DHT22;45916;52.734;6.544;2023-06-14T08:34:13;32.20;39.60
60039;DHT22;45916;52.734;6.544;2023-06-14T08:36:39;32.10;38.60
60039;DHT22;45916;52.734;6.544;2023-06-14T08:39:06;31.80;39.70
60039;DHT22;45916;52.734;6.544;2023-06-14T08:41:32;32.30;39.70
60039;DHT22;45916;52.734;6.544;2023-06-14T08:43:58;32.60;38.60
60039;DHT22;45916;52.734;6.544;2023-06-14T08:46:25;32.60;37.80
60039;DHT22;45916;52.734;6.544;2023-06-14T08:48:55;32.00;38.30
60039;DHT22;45916;52.734;6.544;2023-06-14T08:51:25;31.80;39.40
60039;DHT22;45916;52.734;6.544;2023-06-14T08:53:55;31.80;38.60
60039;DHT22;45916;52.734;6.544;2023-06-14T08:56:33;31.50;39.50
60039;DHT22;45916;52.734;6.544;2023-06-14T08:59:02;31.20;39.10
60039;DHT22;45916;52.734;6.544;2023-06-14T09:01:33;30.60;40.70
60039;DHT22;45916;52.734;6.544;2023-06-14T09:03:59;31.00;40.30
60039;DHT22;45916;52.734;6.544;2023-06-14T09:06:25;31.00;39.90
60039;DHT22;45916;52.734;6.544;2023-06-14T09:08:54;31.40;40.70
60039;DHT22;45916;52.734;6.544;2023-06-14T09:11:22;32.40;39.90
60039;DHT22;45916;52.734;6.544;2023-06-14T09:13:49;32.10;38.30
60039;DHT22;45916;52.734;6.544;2023-06-14T09:16:16;31.90;37.30
60039;DHT22;45916;52.734;6.544;2023-06-14T09:18:46;31.70;38.60
60039;DHT22;45916;52.734;6.544;2023-06-14T09:21:16;31.40;39.00
60039;DHT22;45916;52.734;6.544;2023-06-14T09:23:44;32.20;38.10
60039;DHT22;45916;52.734;6.544;2023-06-14T09:28:47;32.50;36.70
60039;DHT22;45916;52.734;6.544;2023-06-14T09:31:17;32.10;37.90
60039;DHT22;45916;52.734;6.544;2023-06-14T09:33:48;31.90;37.30
60039;DHT22;45916;52.734;6.544;2023-06-14T09:36:21;32.00;37.80
60039;DHT22;45916;52.734;6.544;2023-06-14T09:41:19;33.00;36.90
60039;DHT22;45916;52.734;6.544;2023-06-14T09:43:46;33.90;35.90
60039;DHT22;45916;52.734;6.544;2023-06-14T09:46:13;35.00;35.10
60039;DHT22;45916;52.734;6.544;2023-06-14T09:48:39;35.20;34.60
60039;DHT22;45916;52.734;6.544;2023-06-14T09:51:10;33.90;35.10
60039;DHT22;45916;52.734;6.544;2023-06-14T09:53:39;33.10;35.80
60039;DHT22;45916;52.734;6.544;2023-06-14T09:56:06;32.90;35.60
60039;DHT22;45916;52.734;6.544;2023-06-14T09:58:36;32.00;37.10
60039;DHT22;45916;52.734;6.544;2023-06-14T10:01:05;32.30;36.90
60039;DHT22;45916;52.734;6.544;2023-06-14T10:03:34;33.10;36.60
60039;DHT22;45916;52.734;6.544;2023-06-14T10:06:03;33.00;35.90
60039;DHT22;45916;52.734;6.544;2023-06-14T10:08:36;33.30;36.70
60039;DHT22;45916;52.734;6.544;2023-06-14T10:11:02;33.50;34.70
60039;DHT22;45916;52.734;6.544;2023-06-14T10:13:31;33.10;36.10
60039;DHT22;45916;52.734;6.544;2023-06-14T10:16:18;32.30;35.60
60039;DHT22;45916;52.734;6.544;2023-06-14T10:19:47;32.20;37.00
60039;DHT22;45916;52.734;6.544;2023-06-14T10:22:09;32.50;36.30
60039;DHT22;45916;52.734;6.544;2023-06-14T10:24:44;32.60;35.30
60039;DHT22;45916;52.734;6.544;2023-06-14T10:27:12;31.70;35.30
60039;DHT22;45916;52.734;6.544;2023-06-14T10:32:27;31.00;38.50
60039;DHT22;45916;52.734;6.544;2023-06-14T10:35:00;30.80;39.00
60039;DHT22;45916;52.734;6.544;2023-06-14T10:37:26;31.80;37.30
60039;DHT22;45916;52.734;6.544;2023-06-14T10:39:52;32.00;36.20
60039;DHT22;45916;52.734;6.544;2023-06-14T10:42:19;31.70;36.60
60039;DHT22;45916;52.734;6.544;2023-06-14T10:44:51;32.00;36.00
60039;DHT22;45916;52.734;6.544;2023-06-14T10:47:31;32.60;35.90
60039;DHT22;45916;52.734;6.544;2023-06-14T10:50:10;31.80;35.70
60039;DHT22;45916;52.734;6.544;2023-06-14T10:52:41;31.30;35.90
60039;DHT22;45916;52.734;6.544;2023-06-14T11:00:22;32.00;37.40
60039;DHT22;45916;52.734;6.544;2023-06-14T11:05:52;30.80;37.10
60039;DHT22;45916;52.734;6.544;2023-06-14T11:10:59;28.40;39.70
60039;DHT22;45916;52.734;6.544;2023-06-14T11:13:26;27.80;42.40
60039;DHT22;45916;52.734;6.544;2023-06-14T11:15:52;27.30;42.30
60039;DHT22;45916;52.734;6.544;2023-06-14T11:18:23;26.70;42.80
60039;DHT22;45916;52.734;6.544;2023-06-14T11:20:55;26.10;44.30
60039;DHT22;45916;52.734;6.544;2023-06-14T11:23:21;25.50;44.50
60039;DHT22;45916;52.734;6.544;2023-06-14T11:25:53;25.10;44.50
60039;DHT22;45916;52.734;6.544;2023-06-14T11:28:19;24.80;45.00
60039;DHT22;45916;52.734;6.544;2023-06-14T11:30:59;24.80;46.70
60039;DHT22;45916;52.734;6.544;2023-06-14T11:33:25;24.80;45.60
60039;DHT22;45916;52.734;6.544;2023-06-14T11:35:51;24.60;45.00
60039;DHT22;45916;52.734;6.544;2023-06-14T11:38:17;24.60;45.50
60039;DHT22;45916;52.734;6.544;2023-06-14T11:40:43;24.50;47.00
60039;DHT22;45916;52.734;6.544;2023-06-14T11:43:09;24.50;45.80
60039;DHT22;45916;52.734;6.544;2023-06-14T11:45:35;24.40;46.70
60039;DHT22;45916;52.734;6.544;2023-06-14T11:48:01;24.40;46.00
60039;DHT22;45916;52.734;6.544;2023-06-14T11:50:27;24.40;47.30
60039;DHT22;45916;52.734;6.544;2023-06-14T11:52:58;24.50;47.70
60039;DHT22;45916;52.734;6.544;2023-06-14T11:55:36;24.50;47.30
60039;DHT22;45916;52.734;6.544;2023-06-14T11:58:02;24.40;47.30
60039;DHT22;45916;52.734;6.544;2023-06-14T12:00:28;24.20;48.20
60039;DHT22;45916;52.734;6.544;2023-06-14T12:02:56;24.30;49.70
60039;DHT22;45916;52.734;6.544;2023-06-14T12:05:22;24.40;48.90
60039;DHT22;45916;52.734;6.544;2023-06-14T12:07:49;24.50;47.80
60039;DHT22;45916;52.734;6.544;2023-06-14T12:10:16;24.50;51.20
60039;DHT22;45916;52.734;6.544;2023-06-14T12:12:42;24.50;49.70
60039;DHT22;45916;52.734;6.544;2023-06-14T12:15:09;24.70;49.40
60039;DHT22;45916;52.734;6.544;2023-06-14T12:17:37;25.00;49.90
60039;DHT22;45916;52.734;6.544;2023-06-14T12:22:59;24.80;47.60
60039;DHT22;45916;52.734;6.544;2023-06-14T12:27:56;24.50;49.70
60039;DHT22;45916;52.734;6.544;2023-06-14T12:30:22;24.50;49.70
60039;DHT22;45916;52.734;6.544;2023-06-14T12:32:47;24.50;48.70
60039;DHT22;45916;52.734;6.544;2023-06-14T12:35:14;24.40;49.70
60039;DHT22;45916;52.734;6.544;2023-06-14T12:37:40;24.50;49.20
60039;DHT22;45916;52.734;6.544;2023-06-14T12:40:06;24.50;49.40
60039;DHT22;45916;52.734;6.544;2023-06-14T12:42:33;24.50;48.10
60039;DHT22;45916;52.734;6.544;2023-06-14T12:44:59;24.40;48.20
60039;DHT22;45916;52.734;6.544;2023-06-14T12:47:25;24.40;50.00
60039;DHT22;45916;52.734;6.544;2023-06-14T12:49:51;24.40;48.40
60039;DHT22;45916;52.734;6.544;2023-06-14T12:52:17;24.40;48.00
60039;DHT22;45916;52.734;6.544;2023-06-14T12:54:42;24.30;48.40
60039;DHT22;45916;52.734;6.544;2023-06-14T12:57:08;24.20;48.50
60039;DHT22;45916;52.734;6.544;2023-06-14T12:59:35;24.30;49.00
60039;DHT22;45916;52.734;6.544;2023-06-14T13:02:30;24.40;50.00
60039;DHT22;45916;52.734;6.544;2023-06-14T13:04:56;24.50;49.50
60039;DHT22;45916;52.734;6.544;2023-06-14T13:07:24;24.50;49.50
60039;DHT22;45916;52.734;6.544;2023-06-14T13:09:50;24.40;50.10
60039;DHT22;45916;52.734;6.544;2023-06-14T13:12:16;24.30;50.00
60039;DHT22;45916;52.734;6.544;2023-06-14T13:14:42;24.40;50.40
60039;DHT22;45916;52.734;6.544;2023-06-14T13:17:10;24.50;50.70
60039;DHT22;45916;52.734;6.544;2023-06-14T13:19:36;24.60;50.40
60039;DHT22;45916;52.734;6.544;2023-06-14T13:22:03;24.60;49.70
60039;DHT22;45916;52.734;6.544;2023-06-14T13:24:29;24.50;49.20
60039;DHT22;45916;52.734;6.544;2023-06-14T13:26:56;24.50;50.10
60039;DHT22;45916;52.734;6.544;2023-06-14T13:29:23;24.50;52.20
60039;DHT22;45916;52.734;6.544;2023-06-14T13:31:48;24.60;51.00
60039;DHT22;45916;52.734;6.544;2023-06-14T13:34:14;24.60;49.30
60039;DHT22;45916;52.734;6.544;2023-06-14T13:36:40;24.60;49.90
60039;DHT22;45916;52.734;6.544;2023-06-14T13:39:06;24.60;49.90
60039;DHT22;45916;52.734;6.544;2023-06-14T13:41:32;24.50;50.90
60039;DHT22;45916;52.734;6.544;2023-06-14T13:44:00;24.60;50.10
60039;DHT22;45916;52.734;6.544;2023-06-14T13:46:26;24.70;49.80
60039;DHT22;45916;52.734;6.544;2023-06-14T13:48:52;24.60;49.70
60039;DHT22;45916;52.734;6.544;2023-06-14T13:51:18;24.50;49.80
60039;DHT22;45916;52.734;6.544;2023-06-14T13:53:50;24.60;51.00
60039;DHT22;45916;52.734;6.544;2023-06-14T13:56:17;24.70;51.00
60039;DHT22;45916;52.734;6.544;2023-06-14T13:58:42;24.80;50.00
60039;DHT22;45916;52.734;6.544;2023-06-14T14:01:08;24.80;49.10
60039;DHT22;45916;52.734;6.544;2023-06-14T14:03:35;24.60;49.70
60039;DHT22;45916;52.734;6.544;2023-06-14T14:06:01;24.50;49.40
60039;DHT22;45916;52.734;6.544;2023-06-14T14:08:27;24.40;49.70
60039;DHT22;45916;52.734;6.544;2023-06-14T14:10:53;24.50;50.70
60039;DHT22;45916;52.734;6.544;2023-06-14T14:13:20;24.60;51.40
60039;DHT22;45916;52.734;6.544;2023-06-14T14:15:46;24.70;49.70
60039;DHT22;45916;52.734;6.544;2023-06-14T14:18:12;24.50;49.80
60039;DHT22;45916;52.734;6.544;2023-06-14T14:20:38;24.60;49.90
60039;DHT22;45916;52.734;6.544;2023-06-14T14:23:03;24.60;51.50
60039;DHT22;45916;52.734;6.544;2023-06-14T14:25:30;24.70;49.80
60039;DHT22;45916;52.734;6.544;2023-06-14T14:27:55;24.70;50.20
60039;DHT22;45916;52.734;6.544;2023-06-14T14:30:21;24.80;48.90
60039;DHT22;45916;52.734;6.544;2023-06-14T14:32:49;24.80;50.20
60039;DHT22;45916;52.734;6.544;2023-06-14T14:35:17;24.80;48.80
60039;DHT22;45916;52.734;6.544;2023-06-14T14:37:43;24.80;48.70
60039;DHT22;45916;52.734;6.544;2023-06-14T14:40:09;24.70;49.00
60039;DHT22;45916;52.734;6.544;2023-06-14T14:42:36;24.60;49.50
60039;DHT22;45916;52.734;6.544;2023-06-14T14:45:02;24.70;49.00
60039;DHT22;45916;52.734;6.544;2023-06-14T14:47:28;24.70;49.90
60039;DHT22;45916;52.734;6.544;2023-06-14T14:49:55;24.70;47.90
60039;DHT22;45916;52.734;6.544;2023-06-14T14:52:20;24.70;48.60
60039;DHT22;45916;52.734;6.544;2023-06-14T14:54:46;24.70;49.40
60039;DHT22;45916;52.734;6.544;2023-06-14T14:57:12;24.70;48.70
60039;DHT22;45916;52.734;6.544;2023-06-14T14:59:37;24.70;50.50
60039;DHT22;45916;52.734;6.544;2023-06-14T15:02:03;24.80;48.90
60039;DHT22;45916;52.734;6.544;2023-06-14T15:04:29;24.70;48.70
60039;DHT22;45916;52.734;6.544;2023-06-14T15:06:56;24.70;49.10
60039;DHT22;45916;52.734;6.544;2023-06-14T15:09:22;24.70;49.00
60039;DHT22;45916;52.734;6.544;2023-06-14T15:11:48;24.60;49.10
60039;DHT22;45916;52.734;6.544;2023-06-14T15:14:13;24.40;48.90
60039;DHT22;45916;52.734;6.544;2023-06-14T15:16:40;24.30;49.10
60039;DHT22;45916;52.734;6.544;2023-06-14T15:19:06;24.30;49.50
60039;DHT22;45916;52.734;6.544;2023-06-14T15:21:31;24.40;49.60
60039;DHT22;45916;52.734;6.544;2023-06-14T15:23:57;24.60;49.60
60039;DHT22;45916;52.734;6.544;2023-06-14T15:26:23;24.50;48.70
60039;DHT22;45916;52.734;6.544;2023-06-14T15:28:50;24.50;48.60
60039;DHT22;45916;52.734;6.544;2023-06-14T15:31:16;24.20;48.90
60039;DHT22;45916;52.734;6.544;2023-06-14T15:33:41;24.10;49.60
60039;DHT22;45916;52.734;6.544;2023-06-14T15:36:07;24.20;50.50
60039;DHT22;45916;52.734;6.544;2023-06-14T15:38:35;24.20;50.00
60039;DHT22;45916;52.734;6.544;2023-06-14T15:41:01;24.30;49.70
60039;DHT22;45916;52.734;6.544;2023-06-14T15:43:26;24.50;49.80
60039;DHT22;45916;52.734;6.544;2023-06-14T15:45:52;24.60;49.30
60039;DHT22;45916;52.734;6.544;2023-06-14T15:48:18;24.70;48.90
60039;DHT22;45916;52.734;6.544;2023-06-14T15:50:43;24.80;51.00
60039;DHT22;45916;52.734;6.544;2023-06-14T15:53:10;25.10;50.00
60039;DHT22;45916;52.734;6.544;2023-06-14T15:55:35;25.10;49.00
60039;DHT22;45916;52.734;6.544;2023-06-14T15:58:01;25.10;48.50
60039;DHT22;45916;52.734;6.544;2023-06-14T16:00:27;25.00;49.70